createdAt,value
2022-11-15T00:01:29.965Z,17.15
2022-11-15T00:04:15.467Z,19.40
2022-11-15T00:07:01.198Z,18.70
2022-11-15T00:09:47.325Z,18.73
2022-11-15T00:12:32.815Z,16.15
2022-11-15T00:15:18.864Z,15.88
2022-11-15T00:18:05.752Z,15.80
2022-11-15T00:20:50.967Z,16.60
2022-11-15T00:23:36.799Z,14.65
2022-11-15T00:26:21.999Z,14.52
2022-11-15T00:29:07.849Z,14.77
2022-11-15T00:31:53.669Z,13.63
2022-11-15T00:34:38.916Z,12.95
2022-11-15T00:37:24.229Z,13.88
2022-11-15T00:40:10.690Z,11.82
2022-11-15T00:42:56.299Z,12.07
2022-11-15T00:45:41.502Z,11.93
2022-11-15T00:48:27.144Z,11.57
2022-11-15T00:51:12.718Z,13.90
2022-11-15T00:53:58.200Z,14.27
2022-11-15T00:56:43.869Z,15.05
2022-11-15T00:59:29.451Z,14.27
2022-11-15T01:02:14.975Z,13.27
2022-11-15T01:05:00.371Z,13.40
2022-11-15T01:07:46.359Z,15.18
2022-11-15T01:10:31.899Z,14.05
2022-11-15T01:13:17.468Z,13.55
2022-11-15T01:16:16.030Z,13.23
2022-11-15T01:19:01.535Z,11.95
2022-11-15T01:21:49.530Z,12.85
2022-11-15T01:24:34.959Z,13.02
2022-11-15T01:27:20.567Z,12.57
2022-11-15T01:30:07.008Z,13.35
2022-11-15T01:32:52.469Z,12.55
2022-11-15T01:35:40.862Z,11.70
2022-11-15T01:38:26.470Z,12.77
2022-11-15T01:41:21.355Z,12.32
2022-11-15T01:44:34.571Z,13.18
2022-11-15T01:47:19.855Z,13.07
2022-11-15T01:50:10.937Z,12.52
2022-11-15T01:52:56.397Z,13.15
2022-11-15T01:55:41.786Z,12.82
2022-11-15T01:58:27.181Z,12.85
2022-11-15T02:01:14.385Z,13.45
2022-11-15T02:04:08.923Z,13.32
2022-11-15T02:06:54.784Z,12.82
2022-11-15T02:09:41.304Z,13.45
2022-11-15T02:12:26.664Z,14.32
2022-11-15T02:15:12.702Z,13.27
2022-11-15T02:18:11.638Z,12.38
2022-11-15T02:21:17.559Z,13.48
2022-11-15T02:24:34.912Z,13.73
2022-11-15T02:27:21.290Z,13.88
2022-11-15T02:30:33.484Z,12.07
2022-11-15T02:33:33.975Z,12.75
2022-11-15T02:36:39.613Z,13.27
2022-11-15T02:39:51.702Z,12.50
2022-11-15T02:43:05.603Z,12.45
2022-11-15T02:46:48.598Z,11.93
2022-11-15T02:49:36.246Z,11.52
2022-11-15T02:52:24.087Z,12.25
2022-11-15T02:55:42.180Z,13.38
2022-11-15T02:58:49.006Z,12.05
2022-11-15T03:01:58.232Z,12.57
2022-11-15T03:05:08.131Z,13.43
2022-11-15T03:08:07.458Z,12.68
2022-11-15T03:11:09.403Z,12.88
2022-11-15T03:13:59.739Z,14.18
2022-11-15T03:17:01.589Z,14.38
2022-11-15T03:20:00.019Z,14.52
2022-11-15T03:22:48.397Z,13.68
2022-11-15T03:25:37.987Z,14.48
2022-11-15T03:28:37.935Z,13.65
2022-11-15T03:31:50.039Z,14.50
2022-11-15T03:34:48.516Z,13.02
2022-11-15T03:37:39.766Z,14.10
2022-11-15T03:40:41.197Z,14.57
2022-11-15T03:43:48.426Z,13.98
2022-11-15T03:46:39.951Z,14.50
2022-11-15T03:49:35.200Z,13.77
2022-11-15T03:52:22.057Z,13.93
2022-11-15T03:55:09.596Z,14.60
2022-11-15T03:57:59.471Z,13.35
2022-11-15T04:00:44.898Z,13.37
2022-11-15T04:03:30.812Z,13.93
2022-11-15T04:06:16.594Z,14.07
2022-11-15T04:09:01.884Z,13.88
2022-11-15T04:11:47.358Z,12.70
2022-11-15T04:14:32.729Z,14.23
2022-11-15T04:17:18.400Z,12.80
2022-11-15T04:20:24.806Z,13.00
2022-11-15T04:23:32.150Z,14.30
2022-11-15T04:26:21.354Z,12.55
2022-11-15T04:29:25.391Z,14.98
2022-11-15T04:32:10.547Z,12.85
2022-11-15T04:34:56.104Z,12.35
2022-11-15T04:37:46.424Z,13.38
2022-11-15T04:40:35.000Z,12.55
2022-11-15T04:43:20.681Z,12.82
2022-11-15T04:46:06.141Z,12.73
2022-11-15T04:48:58.041Z,12.60
2022-11-15T04:51:44.378Z,12.65
2022-11-15T04:54:29.879Z,11.48
2022-11-15T04:57:15.718Z,12.93
2022-11-15T05:00:00.895Z,12.73
2022-11-15T05:03:04.808Z,13.07
2022-11-15T05:05:50.117Z,14.40
2022-11-15T05:08:35.814Z,12.50
2022-11-15T05:11:21.581Z,11.77
2022-11-15T05:14:06.974Z,13.13
2022-11-15T05:16:52.657Z,12.85
2022-11-15T05:19:39.410Z,12.27
2022-11-15T05:22:25.119Z,13.32
2022-11-15T05:25:10.581Z,13.45
2022-11-15T05:27:56.390Z,14.48
2022-11-15T05:30:41.645Z,12.30
2022-11-15T05:33:27.253Z,13.52
2022-11-15T05:36:26.049Z,13.13
2022-11-15T05:39:11.435Z,13.00
2022-11-15T05:42:03.928Z,13.63
2022-11-15T05:44:50.451Z,12.90
2022-11-15T05:47:39.564Z,13.60
2022-11-15T05:50:25.490Z,12.98
2022-11-15T05:53:13.886Z,13.20
2022-11-15T05:55:59.230Z,13.30
2022-11-15T05:58:44.689Z,13.27
2022-11-15T06:01:30.741Z,13.02
2022-11-15T06:04:16.206Z,13.05
2022-11-15T06:07:01.715Z,12.60
2022-11-15T06:09:47.252Z,13.98
2022-11-15T06:12:32.878Z,14.10
2022-11-15T06:15:18.457Z,13.77
2022-11-15T06:18:04.067Z,13.63
2022-11-15T06:20:49.519Z,13.98
2022-11-15T06:23:36.137Z,12.18
2022-11-15T06:26:21.990Z,12.13
2022-11-15T06:29:07.556Z,11.45
2022-11-15T06:31:53.977Z,13.07
2022-11-15T06:34:39.518Z,12.93
2022-11-15T06:37:25.054Z,12.90
2022-11-15T06:40:11.967Z,14.57
2022-11-15T06:43:00.600Z,12.90
2022-11-15T06:45:46.166Z,12.52
2022-11-15T06:48:32.789Z,14.40
2022-11-15T06:51:18.087Z,11.65
2022-11-15T06:54:03.814Z,12.35
2022-11-15T06:56:49.615Z,12.73
2022-11-15T06:59:39.284Z,11.95
2022-11-15T07:05:12.228Z,12.68
2022-11-15T07:07:58.777Z,11.70
2022-11-15T07:10:44.398Z,10.82
2022-11-15T07:13:35.296Z,10.48
2022-11-15T07:16:21.020Z,12.02
2022-11-15T07:19:06.514Z,12.75
2022-11-15T07:21:51.800Z,11.10
2022-11-15T07:24:37.294Z,12.23
2022-11-15T07:27:22.930Z,12.77
2022-11-15T07:30:09.231Z,12.20
2022-11-15T07:32:55.727Z,11.60
2022-11-15T07:35:41.557Z,12.20
2022-11-15T07:38:26.896Z,11.23
2022-11-15T07:41:12.444Z,10.55
2022-11-15T07:43:58.601Z,12.80
2022-11-15T07:46:43.886Z,13.35
2022-11-15T07:49:29.429Z,12.75
2022-11-15T07:52:15.059Z,12.73
2022-11-15T07:55:00.391Z,10.55
2022-11-15T07:57:45.931Z,10.05
2022-11-15T08:00:31.841Z,10.45
2022-11-15T08:03:18.394Z,10.07
2022-11-15T08:06:04.449Z,9.98
2022-11-15T08:08:50.108Z,10.30
2022-11-15T08:11:35.479Z,10.43
2022-11-15T08:14:22.992Z,11.38
2022-11-15T08:17:08.186Z,11.35
2022-11-15T08:19:53.820Z,10.32
2022-11-15T08:22:39.084Z,10.60
2022-11-15T08:25:27.216Z,9.80
2022-11-15T08:28:12.903Z,10.05
2022-11-15T08:30:58.361Z,10.43
2022-11-15T08:33:44.395Z,9.52
2022-11-15T08:36:34.753Z,10.65
2022-11-15T08:39:27.095Z,9.32
2022-11-15T08:42:16.975Z,9.82
2022-11-15T08:45:05.390Z,10.20
2022-11-15T08:47:54.223Z,8.98
2022-11-15T08:50:40.496Z,9.90
2022-11-15T08:53:26.283Z,9.63
2022-11-15T23:22:01.217Z,5.78
2022-11-15T23:24:28.435Z,5.20
2022-11-15T23:27:03.442Z,4.90
2022-11-15T23:29:31.217Z,5.40
2022-11-15T23:32:16.802Z,5.80
2022-11-15T23:34:45.326Z,5.18
2022-11-15T23:37:15.821Z,5.40
2022-11-15T23:39:42.828Z,4.95
2022-11-15T23:42:19.589Z,5.00
2022-11-15T23:44:49.891Z,5.47
2022-11-15T23:47:18.561Z,5.13
2022-11-15T23:49:45.534Z,5.13
2022-11-15T23:52:12.526Z,5.60
2022-11-15T23:54:39.358Z,5.32
2022-11-15T23:57:46.261Z,4.82
